Time;durP1;ratioP1;P1;durP2;ratioP2;P2;SDS_P1;SDS_P2;PMS_P1;PMS_P2;Temp;Humidity;BMP_temperature;BMP_pressure;BME280_temperature;BME280_humidity;BME280_pressure;Samples;Min_cycle;Max_cycle;Signal;HPM_P1;HPM_P2
2021/12/25 00:00:20;;;;;;;17.05;11.50;;;;;;;3.30;100.00;95658.53;5019733;28;20080;-65
2021/12/25 00:02:46;;;;;;;21.02;12.25;;;;;;;3.30;100.00;95663.94;5024649;28;20045;-64
2021/12/25 00:05:13;;;;;;;22.20;11.75;;;;;;;3.24;100.00;95656.06;5016733;28;20048;-64
2021/12/25 00:07:39;;;;;;;22.15;13.65;;;;;;;3.22;100.00;95654.81;5038325;28;20042;-64
2021/12/25 00:10:06;;;;;;;19.75;12.50;;;;;;;3.22;100.00;95649.41;5019604;28;20387;-66
2021/12/25 00:12:32;;;;;;;24.30;15.02;;;;;;;3.17;100.00;95638.84;5023424;28;20052;-65
2021/12/25 00:14:58;;;;;;;24.05;13.80;;;;;;;3.15;100.00;95639.19;5022691;28;20523;-65
2021/12/25 00:17:26;;;;;;;22.48;14.10;;;;;;;3.14;100.00;95642.25;5018389;28;20128;-64
2021/12/25 00:19:53;;;;;;;21.70;12.77;;;;;;;3.14;100.00;95637.63;5022104;28;20041;-64
2021/12/25 00:22:18;;;;;;;22.67;14.48;;;;;;;3.12;100.00;95633.69;5050437;28;20072;-65
2021/12/25 00:24:45;;;;;;;22.08;13.70;;;;;;;3.10;100.00;95631.31;5055155;28;20065;-64
2021/12/25 00:28:02;;;;;;;19.55;12.73;;;;;;;3.13;100.00;95633.31;5017995;28;20045;-65
2021/12/25 00:35:32;;;;;;;21.13;13.13;;;;;;;3.16;100.00;95632.63;5020308;28;20081;-64
2021/12/25 00:37:57;;;;;;;19.45;12.07;;;;;;;3.15;100.00;95631.09;5020295;28;20044;-64
2021/12/25 00:40:23;;;;;;;15.73;11.32;;;;;;;3.15;100.00;95624.88;5014717;28;20501;-64
2021/12/25 00:42:49;;;;;;;16.05;11.10;;;;;;;3.14;100.00;95626.78;5021874;28;20643;-64
2021/12/25 00:45:14;;;;;;;16.75;11.60;;;;;;;3.14;100.00;95623.31;5016440;28;20558;-64
2021/12/25 00:47:40;;;;;;;16.95;11.43;;;;;;;3.14;100.00;95617.91;5037997;28;20418;-66
2021/12/25 00:50:05;;;;;;;16.83;11.18;;;;;;;3.09;100.00;95618.91;5018254;28;20041;-66
2021/12/25 00:52:31;;;;;;;15.93;11.63;;;;;;;3.10;100.00;95623.22;5054790;28;20115;-66
2021/12/25 00:54:57;;;;;;;17.50;11.65;;;;;;;3.17;100.00;95622.59;5023417;28;20084;-66
2021/12/25 00:57:22;;;;;;;16.95;11.00;;;;;;;3.21;100.00;95628.91;5018088;28;20522;-65
2021/12/25 00:59:48;;;;;;;17.20;11.93;;;;;;;3.19;100.00;95623.84;5023115;28;20101;-66
2021/12/25 01:02:13;;;;;;;19.08;12.07;;;;;;;3.18;100.00;95613.34;5018055;28;20048;-66
2021/12/25 01:04:39;;;;;;;18.20;11.48;;;;;;;3.15;100.00;95611.34;5021098;28;20039;-66
2021/12/25 01:07:05;;;;;;;19.70;11.90;;;;;;;3.16;100.00;95621.03;5017625;28;20045;-67
2021/12/25 01:09:31;;;;;;;17.83;11.93;;;;;;;3.18;100.00;95622.25;5022796;28;20482;-64
2021/12/25 01:11:57;;;;;;;16.92;11.07;;;;;;;3.19;100.00;95613.03;5022114;28;20041;-67
2021/12/25 01:17:23;;;;;;;18.85;11.98;;;;;;;3.00;100.00;95607.47;5022219;28;20037;-66
2021/12/25 01:20:14;;;;;;;;;;;;;;;2.99;100.00;95614.78;5023120;28;20383;-65
2021/12/25 01:30:34;;;;;;;13.80;10.82;;;;;;;3.17;100.00;95633.41;4995999;28;20502;-65
2021/12/25 01:36:09;;;;;;;13.57;10.38;;;;;;;3.13;100.00;95630.63;5014325;28;20057;-66
2021/12/25 01:41:11;;;;;;;13.93;10.10;;;;;;;3.16;100.00;95631.84;5022021;28;20045;-65
2021/12/25 01:49:04;;;;;;;13.93;9.88;;;;;;;3.23;100.00;95613.91;5013123;28;20050;-67
2021/12/25 01:51:31;;;;;;;14.02;10.77;;;;;;;3.31;100.00;95611.38;5001849;28;20038;-66
2021/12/25 01:53:56;;;;;;;15.40;10.18;;;;;;;3.18;100.00;95608.72;5002218;28;20077;-65
2021/12/25 01:56:22;;;;;;;16.20;9.88;;;;;;;3.07;100.00;95607.66;4993535;28;20107;-65
2021/12/25 01:58:48;;;;;;;14.85;10.13;;;;;;;3.12;100.00;95607.41;5001847;28;20088;-65
2021/12/25 02:01:13;;;;;;;12.13;9.23;;;;;;;3.08;100.00;95608.44;4996773;28;20057;-65
2021/12/25 02:03:41;;;;;;;13.55;9.55;;;;;;;3.17;100.00;95600.94;5015285;28;20049;-65
2021/12/25 02:06:08;;;;;;;15.15;9.30;;;;;;;3.21;100.00;95601.84;4997219;28;20038;-64
2021/12/25 02:08:36;;;;;;;13.13;8.95;;;;;;;3.21;100.00;95604.56;5002172;28;20037;-65
2021/12/25 02:11:03;;;;;;;13.85;9.52;;;;;;;3.14;100.00;95591.63;5002654;28;20407;-66
2021/12/25 02:13:28;;;;;;;12.50;9.05;;;;;;;3.09;100.00;95586.44;5019421;28;20099;-66
2021/12/25 02:15:56;;;;;;;15.23;9.60;;;;;;;3.01;100.00;95600.94;5021417;28;20494;-65
2021/12/25 02:21:08;;;;;;;13.63;9.63;;;;;;;2.90;100.00;95610.63;5021353;28;20115;-65
2021/12/25 02:23:34;;;;;;;16.00;10.48;;;;;;;2.87;100.00;95620.25;5019785;28;20037;-65
2021/12/25 02:26:00;;;;;;;16.17;9.90;;;;;;;2.89;100.00;95617.97;5021865;28;20263;-65
2021/12/25 02:28:27;;;;;;;12.85;9.25;;;;;;;2.83;100.00;95601.22;5017721;28;20038;-66
2021/12/25 02:30:57;;;;;;;13.60;9.77;;;;;;;2.80;100.00;95601.88;5022500;28;20047;-65
2021/12/25 02:33:25;;;;;;;16.35;10.88;;;;;;;2.74;100.00;95597.06;5015367;28;20053;-66
2021/12/25 02:35:51;;;;;;;19.30;10.93;;;;;;;2.65;100.00;95592.59;5020398;28;20040;-64
2021/12/25 02:38:16;;;;;;;20.17;12.60;;;;;;;2.56;100.00;95596.56;5017717;28;20042;-66
2021/12/25 02:40:42;;;;;;;15.88;10.82;;;;;;;2.52;100.00;95591.06;5022877;28;20088;-66
2021/12/25 02:43:07;;;;;;;15.18;10.40;;;;;;;2.59;100.00;95598.56;5016488;28;20478;-66
2021/12/25 02:45:33;;;;;;;17.80;10.88;;;;;;;2.65;100.00;95591.81;5020832;28;20040;-65
2021/12/25 02:48:07;;;;;;;37.50;10.60;;;;;;;2.63;100.00;95581.34;5020900;28;20471;-65
2021/12/25 02:50:35;;;;;;;47.88;10.75;;;;;;;2.35;100.00;95594.00;5020008;28;20046;-65
2021/12/25 02:53:03;;;;;;;39.30;10.60;;;;;;;2.28;100.00;95556.75;5020317;28;20095;-65
2021/12/25 02:55:29;;;;;;;15.35;10.60;;;;;;;2.33;100.00;95570.03;5017076;28;20103;-65
2021/12/25 02:57:55;;;;;;;14.27;10.07;;;;;;;2.35;100.00;95573.16;5020572;28;20045;-65
2021/12/25 03:00:27;;;;;;;14.32;10.02;;;;;;;2.41;100.00;95581.81;5014781;28;20041;-65
2021/12/25 03:02:52;;;;;;;13.20;9.90;;;;;;;2.52;100.00;95574.84;5020989;28;20041;-66
2021/12/25 03:05:18;;;;;;;13.70;9.93;;;;;;;2.60;100.00;95565.00;5015641;28;20048;-66
2021/12/25 03:07:44;;;;;;;14.88;9.70;;;;;;;2.48;100.00;95566.63;5019555;28;20038;-65
2021/12/25 03:10:11;;;;;;;14.40;10.00;;;;;;;2.57;100.00;95571.09;5016201;28;20132;-66
2021/12/25 03:12:49;;;;;;;15.60;10.45;;;;;;;2.57;100.00;95561.06;5023506;28;20049;-66
2021/12/25 03:15:26;;;;;;;14.80;9.85;;;;;;;2.38;100.00;95574.41;5017036;28;20037;-64
2021/12/25 03:17:51;;;;;;;12.95;9.20;;;;;;;2.36;100.00;95571.25;5023608;28;20475;-65
2021/12/25 03:20:17;;;;;;;15.52;10.10;;;;;;;2.51;100.00;95564.38;5016711;28;20044;-64
2021/12/25 03:22:43;;;;;;;15.68;10.35;;;;;;;2.65;100.00;95564.78;5020081;28;20046;-64
2021/12/25 03:25:11;;;;;;;12.57;8.85;;;;;;;2.60;100.00;95560.38;5015686;28;20132;-65
2021/12/25 03:27:39;;;;;;;14.20;8.68;;;;;;;2.61;100.00;95559.25;5019738;28;20074;-65
2021/12/25 03:30:06;;;;;;;13.23;9.30;;;;;;;2.64;100.00;95560.47;5016140;28;20037;-64
2021/12/25 03:32:31;;;;;;;11.77;8.40;;;;;;;2.58;100.00;95553.75;5020438;28;20076;-66
2021/12/25 03:34:57;;;;;;;12.95;8.48;;;;;;;2.52;100.00;95555.09;5018637;28;20071;-66
2021/12/25 03:37:22;;;;;;;13.00;8.27;;;;;;;2.45;100.00;95551.09;5014700;28;20931;-65
2021/12/25 03:39:48;;;;;;;13.65;10.00;;;;;;;2.46;100.00;95555.34;5020390;28;20149;-63
2021/12/25 03:42:14;;;;;;;17.85;10.48;;;;;;;2.38;100.00;95550.09;5015164;28;20058;-65
2021/12/25 03:44:39;;;;;;;14.35;9.65;;;;;;;2.62;100.00;95546.53;5020403;28;20478;-66
2021/12/25 03:47:31;;;;;;;13.27;9.35;;;;;;;2.73;100.00;95547.59;5046532;28;20042;-66
2021/12/25 03:53:09;;;;;;;14.70;9.40;;;;;;;2.85;100.00;95584.66;5021236;28;20045;-63
2021/12/25 03:58:16;;;;;;;13.95;10.82;;;;;;;2.70;100.00;95575.31;4993781;28;20042;-65
2021/12/25 04:00:43;;;;;;;16.27;10.00;;;;;;;2.93;100.00;95547.75;5000854;28;20042;-63
2021/12/25 04:03:16;;;;;;;15.38;9.80;;;;;;;2.95;100.00;95548.19;4994417;28;20518;-63
2021/12/25 04:05:45;;;;;;;19.35;10.65;;;;;;;2.49;100.00;95533.03;5000308;28;20066;-64
2021/12/25 04:08:13;;;;;;;16.02;10.68;;;;;;;2.06;100.00;95522.91;4997824;28;20115;-64
2021/12/25 04:10:42;;;;;;;17.73;10.82;;;;;;;1.98;100.00;95534.63;5003693;28;20045;-64
2021/12/25 04:13:14;;;;;;;17.00;11.43;;;;;;;2.09;100.00;95551.94;4998803;28;20044;-64
2021/12/25 04:15:41;;;;;;;17.52;12.10;;;;;;;2.34;100.00;95536.47;5003869;28;20046;-64
2021/12/25 04:18:07;;;;;;;21.52;11.48;;;;;;;2.48;100.00;95533.38;4999025;28;20152;-66
2021/12/25 04:20:35;;;;;;;17.98;11.52;;;;;;;2.74;100.00;95534.88;5004428;28;20438;-65
2021/12/25 04:23:05;;;;;;;17.77;10.98;;;;;;;2.67;100.00;95538.19;5020375;28;20081;-66
2021/12/25 04:25:33;;;;;;;23.92;11.15;;;;;;;2.58;100.00;95527.50;5023722;28;20053;-65
2021/12/25 04:28:17;;;;;;;23.42;11.80;;;;;;;2.42;100.00;95532.06;5023868;28;20037;-65
2021/12/25 04:49:53;;;;;;;15.30;11.20;;;;;;;2.77;100.00;95545.00;5017113;28;20040;-65
2021/12/25 05:05:21;;;;;;;15.77;10.48;;;;;;;2.62;100.00;95554.63;5017229;28;20447;-64
2021/12/25 05:07:47;;;;;;;14.57;9.93;;;;;;;2.67;100.00;95557.88;5023397;28;20450;-65
2021/12/25 05:10:13;;;;;;;14.13;10.05;;;;;;;2.70;100.00;95553.69;5017336;28;20148;-64
2021/12/25 05:12:39;;;;;;;16.50;8.88;;;;;;;2.89;100.00;95553.06;5054527;28;20128;-65
2021/12/25 05:15:05;;;;;;;13.43;9.88;;;;;;;2.88;100.00;95565.00;5017255;28;20827;-66
2021/12/25 05:17:30;;;;;;;15.77;9.93;;;;;;;2.78;100.00;95565.50;5053290;28;20135;-65
2021/12/25 05:19:57;;;;;;;13.80;10.23;;;;;;;2.68;100.00;95562.16;5020027;28;20725;-64
2021/12/25 05:22:23;;;;;;;13.32;9.60;;;;;;;2.63;100.00;95564.34;5017208;28;20504;-61
2021/12/25 05:24:49;;;;;;;14.55;10.65;;;;;;;2.58;100.00;95557.25;5021715;28;20041;-66
2021/12/25 05:27:15;;;;;;;14.27;10.25;;;;;;;2.53;100.00;95560.19;5018132;28;20135;-64
2021/12/25 05:29:45;;;;;;;16.05;11.13;;;;;;;2.45;100.00;95561.13;5022510;28;20084;-65
2021/12/25 05:32:12;;;;;;;20.35;12.55;;;;;;;2.45;100.00;95564.59;5017656;28;20095;-64
2021/12/25 05:34:37;;;;;;;15.25;11.52;;;;;;;2.48;100.00;95563.13;5020755;28;20060;-64
2021/12/25 05:37:03;;;;;;;17.13;11.40;;;;;;;2.60;100.00;95565.78;5052191;28;20037;-65
2021/12/25 05:39:29;;;;;;;17.27;12.02;;;;;;;2.48;100.00;95563.91;5033839;28;20043;-64
2021/12/25 05:41:54;;;;;;;17.67;11.32;;;;;;;2.43;100.00;95564.16;5022163;28;20567;-64
2021/12/25 05:44:20;;;;;;;15.20;10.98;;;;;;;2.72;100.00;95572.28;5033338;28;20033;-63
2021/12/25 05:46:46;;;;;;;15.65;10.27;;;;;;;2.81;100.00;95581.03;5021470;28;20084;-64
2021/12/25 05:49:11;;;;;;;14.50;10.13;;;;;;;2.77;100.00;95567.41;5016799;28;20537;-64
2021/12/25 05:51:37;;;;;;;17.23;11.25;;;;;;;2.59;100.00;95571.53;5037218;28;20053;-64
2021/12/25 05:54:02;;;;;;;15.02;11.68;;;;;;;2.47;100.00;95564.25;5020243;28;20084;-65
2021/12/25 05:56:28;;;;;;;16.30;11.98;;;;;;;2.48;100.00;95560.41;5020115;28;20383;-64
2021/12/25 05:58:53;;;;;;;22.23;14.05;;;;;;;2.37;100.00;95570.13;5022597;28;20146;-64
2021/12/25 06:01:19;;;;;;;20.40;13.02;;;;;;;2.38;100.00;95561.69;5014033;28;20045;-63
2021/12/25 06:03:44;;;;;;;20.08;13.25;;;;;;;2.18;100.00;95546.41;5022335;28;20042;-64
2021/12/25 06:06:10;;;;;;;21.65;13.82;;;;;;;2.15;100.00;95549.81;5014957;28;20047;-65
2021/12/25 06:08:35;;;;;;;23.65;14.50;;;;;;;2.09;100.00;95547.31;5021551;28;20483;-65
2021/12/25 06:11:03;;;;;;;21.20;13.23;;;;;;;2.16;100.00;95567.56;5004069;28;20046;-65
2021/12/25 06:13:29;;;;;;;21.48;13.60;;;;;;;2.18;100.00;95555.31;4999960;28;20084;-63
2021/12/25 06:15:56;;;;;;;24.98;15.52;;;;;;;2.16;100.00;95552.16;5014944;28;20038;-64
2021/12/25 06:18:21;;;;;;;22.67;14.10;;;;;;;2.29;100.00;95552.94;4996024;28;20545;-63
2021/12/25 06:20:47;;;;;;;26.63;15.98;;;;;;;2.29;100.00;95545.59;5000120;28;20509;-63
2021/12/25 06:23:12;;;;;;;22.98;14.85;;;;;;;2.36;100.00;95552.31;5012777;28;20038;-64
2021/12/25 06:25:38;;;;;;;21.58;14.18;;;;;;;2.40;100.00;95548.63;5003894;28;20041;-65
2021/12/25 06:28:03;;;;;;;20.95;13.27;;;;;;;2.44;100.00;95546.03;5007320;28;20046;-65
2021/12/25 06:30:29;;;;;;;24.23;14.85;;;;;;;2.49;100.00;95551.97;4998575;28;20041;-63
2021/12/25 06:32:55;;;;;;;20.25;13.80;;;;;;;2.60;100.00;95565.78;5001401;28;20038;-65
2021/12/25 06:35:20;;;;;;;23.95;13.73;;;;;;;2.61;100.00;95550.34;4996040;28;20133;-63
2021/12/25 06:37:47;;;;;;;23.27;13.48;;;;;;;2.61;100.00;95550.34;5016939;28;20380;-63
2021/12/25 06:40:19;;;;;;;23.85;14.00;;;;;;;2.84;100.00;95561.41;4997008;28;20119;-64
2021/12/25 06:42:46;;;;;;;20.38;13.02;;;;;;;2.80;100.00;95566.72;5001735;28;20141;-63
2021/12/25 06:45:13;;;;;;;24.38;13.85;;;;;;;2.78;100.00;95552.78;4995539;28;20037;-65
2021/12/25 06:47:38;;;;;;;21.40;13.48;;;;;;;2.82;100.00;95555.56;5001274;28;20131;-63
2021/12/25 06:50:07;;;;;;;17.25;11.95;;;;;;;2.84;100.00;95561.41;4998419;28;20502;-64
2021/12/25 06:52:33;;;;;;;19.83;12.40;;;;;;;2.83;100.00;95573.38;4991510;28;20395;-65
2021/12/25 06:54:58;;;;;;;19.50;13.00;;;;;;;2.71;100.00;95568.03;5000981;28;20038;-64
2021/12/25 06:57:24;;;;;;;18.23;12.57;;;;;;;2.70;100.00;95572.63;4996242;28;20477;-65
2021/12/25 06:59:49;;;;;;;19.80;11.80;;;;;;;2.80;100.00;95582.19;5002303;28;20579;-65
2021/12/25 07:02:15;;;;;;;34.35;14.32;;;;;;;2.90;100.00;95584.41;4996823;28;20046;-64
2021/12/25 07:04:40;;;;;;;27.52;14.18;;;;;;;2.91;100.00;95575.16;5000821;28;20038;-64
2021/12/25 07:07:06;;;;;;;21.17;12.05;;;;;;;2.96;100.00;95580.31;4996106;28;20399;-66
2021/12/25 07:09:31;;;;;;;20.63;11.35;;;;;;;3.00;100.00;95585.81;5001360;28;20665;-65
2021/12/25 07:11:57;;;;;;;15.25;11.00;;;;;;;3.01;100.00;95590.88;5000770;28;20038;-64
2021/12/25 07:14:23;;;;;;;16.42;10.98;;;;;;;3.08;100.00;95586.78;4995176;28;20046;-64
2021/12/25 07:16:48;;;;;;;16.45;11.65;;;;;;;3.01;100.00;95577.38;4995060;28;20080;-64
2021/12/25 07:19:15;;;;;;;18.98;12.55;;;;;;;2.62;100.00;95571.63;4995443;28;20041;-63
2021/12/25 07:21:42;;;;;;;17.48;11.32;;;;;;;2.82;100.00;95574.50;5000964;28;20586;-65
2021/12/25 07:24:09;;;;;;;19.52;12.85;;;;;;;3.00;100.00;95578.47;4995304;28;20038;-64
2021/12/25 07:26:36;;;;;;;20.48;11.40;;;;;;;3.07;100.00;95594.13;5000531;28;20042;-64
2021/12/25 07:29:03;;;;;;;18.02;11.75;;;;;;;3.03;100.00;95602.16;4999633;28;20141;-63
2021/12/25 07:31:28;;;;;;;22.88;13.73;;;;;;;3.04;100.00;95603.72;5004642;28;20139;-64
2021/12/25 07:33:53;;;;;;;18.60;12.35;;;;;;;3.04;100.00;95609.16;5005197;28;20487;-64
2021/12/25 07:36:19;;;;;;;21.05;13.45;;;;;;;3.05;100.00;95604.50;5003896;28;20486;-64
2021/12/25 07:38:44;;;;;;;20.50;12.90;;;;;;;3.06;100.00;95606.06;5035920;28;20076;-64
2021/12/25 07:41:10;;;;;;;15.75;10.88;;;;;;;3.21;100.00;95610.75;5015317;28;20037;-64
2021/12/25 07:43:35;;;;;;;16.27;11.05;;;;;;;3.26;100.00;95615.13;5020114;28;20111;-65
2021/12/25 07:46:02;;;;;;;14.65;9.73;;;;;;;3.28;100.00;95617.47;5024360;28;20103;-64
2021/12/25 07:48:27;;;;;;;16.83;11.02;;;;;;;3.19;100.00;95615.72;5020338;28;20041;-64
2021/12/25 07:50:54;;;;;;;15.52;10.15;;;;;;;3.30;100.00;95612.53;5025435;28;20087;-64
2021/12/25 07:53:20;;;;;;;17.80;11.20;;;;;;;3.16;100.00;95608.28;5018226;28;20521;-65
2021/12/25 07:55:49;;;;;;;19.40;11.43;;;;;;;2.83;100.00;95603.91;5024400;28;20053;-65
2021/12/25 07:58:16;;;;;;;18.77;11.70;;;;;;;2.77;100.00;95602.56;5018915;28;20072;-64
2021/12/25 08:00:42;;;;;;;17.48;12.20;;;;;;;2.85;100.00;95598.94;5024107;28;20046;-65
2021/12/25 08:03:07;;;;;;;18.08;12.15;;;;;;;2.96;100.00;95591.13;5034151;28;20107;-64
2021/12/25 08:05:34;;;;;;;21.50;13.07;;;;;;;2.91;100.00;95593.28;5023515;28;20045;-64
2021/12/25 08:07:59;;;;;;;22.55;13.60;;;;;;;2.79;100.00;95576.00;5023685;28;20131;-65
2021/12/25 08:10:25;;;;;;;15.75;9.95;;;;;;;2.85;100.00;95563.78;5034004;28;20080;-63
2021/12/25 08:12:53;;;;;;;16.95;10.63;;;;;;;3.10;100.00;95565.59;5023791;28;20037;-65
2021/12/25 08:15:22;;;;;;;13.57;9.05;;;;;;;3.24;100.00;95566.78;5018866;28;20041;-64
2021/12/25 08:17:48;;;;;;;11.85;8.00;;;;;;;3.59;100.00;95568.81;5023610;28;20037;-64
2021/12/25 08:20:14;;;;;;;16.13;9.68;;;;;;;3.67;100.00;95563.56;5019015;28;20441;-64
2021/12/25 08:22:40;;;;;;;12.13;7.88;;;;;;;3.61;100.00;95558.41;5024783;28;20076;-64
2021/12/25 08:25:08;;;;;;;11.48;7.80;;;;;;;3.48;100.00;95558.84;5018699;28;20482;-65
2021/12/25 08:27:34;;;;;;;11.93;7.38;;;;;;;3.47;100.00;95552.63;5023435;28;20045;-64
2021/12/25 08:30:00;;;;;;;14.18;7.70;;;;;;;3.50;100.00;95557.38;5024316;28;20046;-63
2021/12/25 08:32:26;;;;;;;11.20;7.45;;;;;;;3.48;100.00;95546.09;5018069;28;20387;-64
2021/12/25 08:34:51;;;;;;;12.90;8.02;;;;;;;3.47;100.00;95573.50;5023754;28;20075;-65
2021/12/25 08:37:22;;;;;;;17.08;11.18;;;;;;;3.57;100.00;95587.31;5017824;28;20045;-64
2021/12/25 08:39:49;;;;;;;17.38;10.75;;;;;;;3.70;100.00;95585.31;5005751;28;20037;-63
2021/12/25 08:42:14;;;;;;;13.57;8.65;;;;;;;3.87;100.00;95591.50;5019202;28;20115;-64
2021/12/25 08:45:39;;;;;;;14.48;8.48;;;;;;;3.94;100.00;95592.50;5024246;28;20581;-64
2021/12/25 08:47:28;;;;;;;9.20;5.65;;;;;;;3.90;100.00;95594.31;5049965;28;20041;-64
2021/12/25 08:49:53;;;;;;;9.43;5.35;;;;;;;4.07;100.00;95603.22;5023616;28;20045;-64
2021/12/25 08:52:21;;;;;;;11.85;7.25;;;;;;;4.20;100.00;95602.78;5018113;28;20484;-64
2021/12/25 08:54:50;;;;;;;9.52;6.05;;;;;;;4.27;100.00;95602.16;5022094;28;20103;-63
2021/12/25 08:57:17;;;;;;;9.33;6.07;;;;;;;4.29;100.00;95601.81;5018668;28;20048;-65
2021/12/25 08:59:43;;;;;;;8.13;5.97;;;;;;;4.34;100.00;95598.81;5021681;28;20081;-65
2021/12/25 09:02:12;;;;;;;8.95;6.32;;;;;;;4.54;100.00;95607.78;5034035;28;20095;-66
2021/12/25 09:04:38;;;;;;;6.72;4.70;;;;;;;4.65;100.00;95595.25;5022286;28;20110;-65
2021/12/25 09:07:05;;;;;;;7.40;5.03;;;;;;;4.59;100.00;95591.22;5032802;28;20038;-64
2021/12/25 09:09:31;;;;;;;7.60;5.10;;;;;;;4.74;100.00;95598.53;5022381;28;20048;-64
2021/12/25 09:11:56;;;;;;;10.23;5.00;;;;;;;4.88;100.00;95605.38;5021652;28;20037;-65
2021/12/25 09:14:22;;;;;;;9.85;5.53;;;;;;;4.88;100.00;95602.66;5031858;28;20647;-65
2021/12/25 09:16:48;;;;;;;15.65;9.60;;;;;;;4.66;100.00;95598.72;5022743;28;20518;-65
2021/12/25 09:19:13;;;;;;;11.13;7.47;;;;;;;4.74;100.00;95598.53;5015572;28;20401;-66
2021/12/25 09:21:39;;;;;;;12.27;5.85;;;;;;;4.90;100.00;95601.19;5020725;28;20523;-64
2021/12/25 09:24:05;;;;;;;21.77;16.27;;;;;;;4.89;100.00;95602.31;5016187;28;20037;-66
2021/12/25 09:26:30;;;;;;;13.32;7.85;;;;;;;4.84;100.00;95609.97;5039412;28;20037;-63
2021/12/25 09:28:56;;;;;;;10.60;7.00;;;;;;;4.71;100.00;95606.59;5055190;28;20088;-65
2021/12/25 09:31:21;;;;;;;19.90;12.60;;;;;;;4.64;100.00;95617.28;5049817;28;20049;-64
2021/12/25 09:33:47;;;;;;;11.82;8.15;;;;;;;4.78;100.00;95609.47;5021480;28;20102;-64
2021/12/25 09:36:12;;;;;;;8.27;6.03;;;;;;;4.81;100.00;95616.09;5048050;28;20155;-66
2021/12/25 09:38:38;;;;;;;9.52;5.50;;;;;;;4.92;100.00;95617.13;5037033;28;20046;-64
2021/12/25 09:41:05;;;;;;;9.02;5.47;;;;;;;5.01;100.00;95614.19;4998663;28;20044;-66
2021/12/25 09:43:32;;;;;;;8.60;5.97;;;;;;;5.00;100.00;95607.19;5017934;28;20048;-64
2021/12/25 09:45:58;;;;;;;9.50;6.03;;;;;;;4.83;100.00;95601.03;5002097;28;20054;-64
2021/12/25 09:48:24;;;;;;;20.17;15.38;;;;;;;4.42;100.00;95581.56;5012722;28;20046;-64
2021/12/25 09:50:49;;;;;;;20.10;13.30;;;;;;;4.34;100.00;95574.41;5002159;28;20088;-65
2021/12/25 09:53:17;;;;;;;11.52;9.15;;;;;;;4.51;100.00;95578.66;4994178;28;20038;-65
2021/12/25 09:55:43;;;;;;;10.38;7.80;;;;;;;4.70;100.00;95580.59;4999850;28;20464;-64
2021/12/25 09:58:09;;;;;;;13.68;6.90;;;;;;;4.84;100.00;95597.16;4997418;28;20494;-65
2021/12/25 10:00:40;;;;;;;12.02;7.90;;;;;;;4.92;100.00;95581.84;5000277;28;20050;-62
2021/12/25 10:03:05;;;;;;;9.05;7.07;;;;;;;5.13;100.00;95586.88;4997720;28;20137;-65
2021/12/25 10:05:37;;;;;;;10.93;6.82;;;;;;;5.22;100.00;95590.19;5015909;28;20136;-65
2021/12/25 10:08:12;;;;;;;9.93;7.85;;;;;;;5.40;100.00;95582.34;5001992;28;20106;-67
2021/12/25 10:10:42;;;;;;;58.78;41.38;;;;;;;5.42;100.00;95585.50;5033334;28;20037;-65
2021/12/25 10:13:31;;;;;;;42.17;30.77;;;;;;;5.43;100.00;95581.63;4996842;28;20049;-66
2021/12/25 10:16:25;;;;;;;19.45;12.05;;;;;;;5.49;100.00;95584.84;5053243;28;20490;-65
2021/12/25 10:18:53;;;;;;;25.17;14.98;;;;;;;5.53;100.00;95583.00;5020452;28;20044;-61
2021/12/25 10:21:27;;;;;;;24.08;16.40;;;;;;;5.51;100.00;95579.81;5049299;28;20048;-60
2021/12/25 10:24:27;;;;;;;20.42;12.95;;;;;;;5.28;100.00;95574.38;5020809;28;20040;-61
2021/12/25 10:26:53;;;;;;;15.48;9.65;;;;;;;5.27;100.00;95572.81;5045636;28;20042;-62
2021/12/25 10:29:21;;;;;;;16.42;10.13;;;;;;;5.14;100.00;95575.69;5015363;28;20091;-62
2021/12/25 10:31:47;;;;;;;13.30;8.40;;;;;;;5.06;100.00;95568.56;5022305;28;20068;-62
2021/12/25 10:34:25;;;;;;;19.42;10.50;;;;;;;5.07;100.00;95556.53;5014588;28;20526;-62
2021/12/25 10:36:51;;;;;;;17.30;10.15;;;;;;;5.04;100.00;95562.72;5022366;28;20045;-62
2021/12/25 10:39:27;;;;;;;15.93;9.25;;;;;;;5.27;100.00;95568.16;5015431;28;20067;-61
2021/12/25 10:42:13;;;;;;;14.93;10.30;;;;;;;5.26;100.00;95566.59;5036370;28;20045;-61
2021/12/25 10:44:51;;;;;;;12.55;8.63;;;;;;;5.47;100.00;95568.13;5020580;28;20502;-63
2021/12/25 10:47:21;;;;;;;13.45;8.65;;;;;;;5.66;100.00;95570.00;5015320;28;20055;-62
2021/12/25 10:49:50;;;;;;;12.38;7.65;;;;;;;5.74;100.00;95569.78;5021295;28;20052;-61
2021/12/25 10:52:28;;;;;;;15.63;9.48;;;;;;;5.90;100.00;95564.19;5015864;28;20053;-62
2021/12/25 10:55:03;;;;;;;21.75;10.55;;;;;;;5.67;100.00;95564.22;5021312;28;20042;-62
2021/12/25 10:57:38;;;;;;;15.82;8.63;;;;;;;5.45;100.00;95573.13;5017534;28;20044;-63
2021/12/25 11:00:11;;;;;;;42.67;29.30;;;;;;;5.37;100.00;95561.38;4999458;28;20072;-63
2021/12/25 11:02:46;;;;;;;15.45;9.65;;;;;;;5.46;100.00;95563.84;5020998;28;20080;-63
2021/12/25 11:05:26;;;;;;;15.48;10.82;;;;;;;5.64;100.00;95561.44;5014275;28;20136;-63
2021/12/25 11:08:07;;;;;;;17.55;8.55;;;;;;;5.74;100.00;95553.47;5013778;28;20045;-62
2021/12/25 11:11:00;;;;;;;14.30;9.35;;;;;;;5.71;100.00;95551.47;4982328;28;20180;-62
2021/12/25 11:13:44;;;;;;;11.70;7.45;;;;;;;5.90;100.00;95557.97;4985466;28;20050;-62
2021/12/25 11:16:18;;;;;;;11.43;8.10;;;;;;;6.14;100.00;95565.00;5007418;28;20042;-64
2021/12/25 11:19:03;;;;;;;13.48;8.75;;;;;;;6.31;100.00;95566.41;4991354;28;20042;-62
2021/12/25 11:21:56;;;;;;;15.02;10.07;;;;;;;6.48;100.00;95573.25;4992804;28;20050;-63
2021/12/25 11:24:31;;;;;;;17.40;9.73;;;;;;;6.67;100.00;95578.56;5020288;28;20681;-62
2021/12/25 11:27:02;;;;;;;15.85;8.65;;;;;;;6.86;100.00;95561.31;5022828;28;20562;-62
2021/12/25 11:29:30;;;;;;;11.93;8.00;;;;;;;6.81;100.00;95567.09;5013527;28;20085;-64
2021/12/25 11:31:57;;;;;;;12.13;8.85;;;;;;;6.95;100.00;95554.78;5028302;28;20137;-61
2021/12/25 11:34:24;;;;;;;15.05;10.07;;;;;;;6.95;100.00;95557.50;4994000;28;20050;-63
2021/12/25 11:36:52;;;;;;;10.35;6.70;;;;;;;7.26;100.00;95569.94;4998066;28;20046;-62
2021/12/25 11:39:21;;;;;;;14.93;6.90;;;;;;;7.49;100.00;95558.91;4974736;28;20388;-63
2021/12/25 11:41:58;;;;;;;9.15;6.05;;;;;;;7.62;100.00;95567.59;4980940;28;20077;-63
2021/12/25 11:44:41;;;;;;;8.35;5.05;;;;;;;7.60;100.00;95567.19;4976885;28;20116;-61
2021/12/25 11:47:27;;;;;;;9.70;4.93;;;;;;;7.72;100.00;95564.16;4976852;28;20038;-62
2021/12/25 11:49:54;;;;;;;6.03;3.90;;;;;;;7.69;100.00;95564.13;4992518;28;20045;-63
2021/12/25 11:52:23;;;;;;;10.57;5.88;;;;;;;7.55;100.00;95562.84;4985745;28;20081;-63
2021/12/25 11:58:03;;;;;;;5.97;3.20;;;;;;;7.13;100.00;95561.25;4978311;28;20046;-61
2021/12/25 12:00:35;;;;;;;5.30;2.73;;;;;;;6.97;100.00;95563.38;5031333;28;20033;-62
2021/12/25 12:03:01;;;;;;;6.95;3.90;;;;;;;6.86;100.00;95564.03;5040175;28;20295;-63
2021/12/25 12:05:32;;;;;;;4.68;3.22;;;;;;;6.68;100.00;95565.72;5024632;28;20041;-61
2021/12/25 12:07:59;;;;;;;5.55;3.70;;;;;;;6.54;100.00;95551.97;5020998;28;20065;-62
2021/12/25 12:10:44;;;;;;;9.65;3.90;;;;;;;6.33;100.00;95561.38;5021562;28;20052;-61
2021/12/25 12:13:18;;;;;;;7.72;4.13;;;;;;;6.28;100.00;95558.97;5028136;28;20064;-61
2021/12/25 12:15:46;;;;;;;7.45;4.63;;;;;;;6.19;100.00;95555.72;5030478;28;20501;-62
2021/12/25 12:18:23;;;;;;;8.00;3.78;;;;;;;6.35;100.00;95555.56;5014921;28;20072;-63
2021/12/25 12:20:49;;;;;;;5.53;3.50;;;;;;;6.21;100.00;95558.88;5020334;28;20038;-62
2021/12/25 12:23:38;;;;;;;6.07;3.90;;;;;;;6.07;100.00;95552.06;5015277;28;20041;-61
2021/12/25 12:26:10;;;;;;;6.20;3.50;;;;;;;6.00;100.00;95543.03;5014107;28;20045;-63
2021/12/25 12:28:46;;;;;;;5.93;3.70;;;;;;;5.97;100.00;95552.69;5021284;28;20099;-62
2021/12/25 12:31:43;;;;;;;7.10;4.80;;;;;;;5.91;100.00;95552.19;5029799;28;20043;-63
2021/12/25 12:34:40;;;;;;;27.70;15.70;;;;;;;5.98;100.00;95556.97;5038784;28;20398;-61
2021/12/25 12:37:15;;;;;;;11.30;7.40;;;;;;;5.86;100.00;95555.22;5020725;28;20108;-63
2021/12/25 12:39:44;;;;;;;10.55;5.70;;;;;;;5.93;100.00;95562.69;5026363;28;20092;-61